Time;durP1;ratioP1;P1;durP2;ratioP2;P2;SDS_P1;SDS_P2;PMS_P1;PMS_P2;Temp;Humidity;BMP_temperature;BMP_pressure;BME280_temperature;BME280_humidity;BME280_pressure;Samples;Min_cycle;Max_cycle;Signal;HPM_P1;HPM_P2
2021/05/28 00:07:17;;;;;;;16.50;8.90;;;;;;;10.21;100.00;100425.55;712548;1202;115751;-81
2021/05/28 00:22:41;;;;;;;32.40;15.75;;;;;;;10.16;100.00;100425.92;712684;1206;115639;-80
2021/05/28 00:38:02;;;;;;;31.25;12.10;;;;;;;9.98;100.00;100418.66;712665;1202;116518;-80
2021/05/28 00:53:24;;;;;;;20.10;13.03;;;;;;;9.90;100.00;100417.65;712628;1206;114708;-80
2021/05/28 01:08:45;;;;;;;26.60;14.38;;;;;;;9.96;100.00;100417.97;712561;1203;115497;-80
2021/05/28 01:24:06;;;;;;;22.83;12.20;;;;;;;9.92;100.00;100419.16;712456;1178;114141;-80
2021/05/28 01:39:26;;;;;;;14.50;9.70;;;;;;;9.78;100.00;100424.73;712802;1202;115586;-81
2021/05/28 01:54:46;;;;;;;14.80;10.30;;;;;;;9.66;100.00;100431.81;712530;1202;114277;-80
2021/05/28 02:10:07;;;;;;;18.53;11.38;;;;;;;9.42;100.00;100429.38;712478;1202;115480;-81
2021/05/28 02:25:29;;;;;;;18.28;11.25;;;;;;;9.18;100.00;100434.81;712693;1206;114549;-80
2021/05/28 02:40:49;;;;;;;14.83;9.43;;;;;;;8.97;100.00;100441.64;712758;1202;115773;-81
2021/05/28 02:56:09;;;;;;;16.17;10.23;;;;;;;9.16;100.00;100451.47;712608;1202;113968;-80
2021/05/28 03:11:30;;;;;;;17.70;11.38;;;;;;;9.57;100.00;100451.72;712592;1205;115372;-80
2021/05/28 03:26:51;;;;;;;37.35;15.70;;;;;;;9.82;100.00;100452.34;712465;1202;115296;-80
2021/05/28 03:42:12;;;;;;;20.57;12.00;;;;;;;9.98;100.00;100471.06;712523;1203;114461;-80
2021/05/28 03:57:32;;;;;;;23.30;13.33;;;;;;;10.25;100.00;100471.52;712717;1177;115643;-80
2021/05/28 04:12:56;;;;;;;27.13;13.97;;;;;;;10.85;100.00;100468.25;712615;1203;115511;-80
2021/05/28 04:28:17;;;;;;;20.90;14.05;;;;;;;11.06;100.00;100469.03;714669;1202;115431;-79
2021/05/28 04:43:38;;;;;;;24.80;13.78;;;;;;;11.29;100.00;100468.80;712578;1202;116198;-80
2021/05/28 04:58:59;;;;;;;20.95;13.00;;;;;;;11.31;100.00;100478.20;712363;1202;115868;-80
2021/05/28 05:14:19;;;;;;;17.50;12.40;;;;;;;11.43;100.00;100484.17;715481;1168;114745;-81
2021/05/28 05:29:40;;;;;;;22.40;13.80;;;;;;;11.45;100.00;100495.36;712428;1202;114736;-81
2021/05/28 05:45:00;;;;;;;25.30;15.50;;;;;;;11.61;100.00;100494.00;712235;1202;115864;-81
2021/05/28 06:00:21;;;;;;;27.90;17.10;;;;;;;11.77;100.00;100517.11;712271;1203;114687;-81
2021/05/28 06:15:41;;;;;;;31.05;19.55;;;;;;;12.04;100.00;100521.72;712913;1202;115691;-80
2021/05/28 06:31:02;;;;;;;24.97;17.10;;;;;;;12.20;100.00;100530.86;712597;1203;114980;-81
2021/05/28 06:46:23;;;;;;;25.43;16.80;;;;;;;12.57;100.00;100541.45;712625;1202;114600;-77
2021/05/28 07:01:43;;;;;;;22.53;16.43;;;;;;;13.05;100.00;100547.55;712414;1205;115329;-77
2021/05/28 07:17:04;;;;;;;20.80;15.10;;;;;;;13.72;100.00;100547.34;714230;1205;115622;-78
2021/05/28 07:32:25;;;;;;;17.95;13.48;;;;;;;14.51;100.00;100562.53;712472;1205;115182;-75
2021/05/28 07:47:45;;;;;;;15.63;12.93;;;;;;;14.73;100.00;100563.88;712462;1202;115850;-74
2021/05/28 08:03:07;;;;;;;18.25;11.30;;;;;;;15.27;100.00;100561.83;712398;1202;115331;-73
2021/05/28 08:18:29;;;;;;;12.83;10.07;;;;;;;15.78;100.00;100559.17;712839;1202;115748;-76
2021/05/28 08:33:50;;;;;;;11.07;8.37;;;;;;;16.14;100.00;100560.73;713524;1202;115995;-74
2021/05/28 08:49:10;;;;;;;8.78;7.35;;;;;;;16.37;100.00;100568.81;713703;1203;115895;-75
2021/05/28 09:04:31;;;;;;;8.83;7.15;;;;;;;16.35;100.00;100554.09;713130;1202;115629;-76
2021/05/28 09:19:56;;;;;;;10.83;7.67;;;;;;;17.34;100.00;100562.66;712488;1202;114687;-73
2021/05/28 09:35:20;;;;;;;24.77;8.80;;;;;;;19.41;97.07;100551.91;712442;1202;115042;-73
2021/05/28 09:51:05;;;;;;;5.45;4.93;;;;;;;20.83;91.52;100540.67;712703;1202;114179;-72
2021/05/28 10:06:28;;;;;;;6.33;4.48;;;;;;;19.95;87.16;100541.83;714983;1203;114559;-73
2021/05/28 10:21:48;;;;;;;5.40;3.45;;;;;;;18.90;84.53;100539.39;718074;1202;114073;-73
2021/05/28 10:37:28;;;;;;;7.00;2.63;;;;;;;18.13;81.56;100529.83;714341;1202;115765;-73
2021/05/28 10:53:08;;;;;;;5.47;3.60;;;;;;;17.42;79.62;100541.40;714719;1202;115201;-75
2021/05/28 11:08:45;;;;;;;3.90;3.30;;;;;;;15.25;83.33;100563.78;712828;1205;114429;-79
2021/05/28 11:24:06;;;;;;;3.50;3.08;;;;;;;14.72;91.80;100568.30;714593;1202;115240;-77
2021/05/28 11:39:27;;;;;;;3.03;2.70;;;;;;;15.13;94.76;100563.23;713435;1202;114063;-74
2021/05/28 11:54:47;;;;;;;6.13;5.33;;;;;;;17.21;96.15;100551.76;712332;1205;115660;-74
2021/05/28 12:10:10;;;;;;;4.50;3.33;;;;;;;18.63;89.62;100538.16;712408;1202;115729;-74
2021/05/28 12:25:33;;;;;;;3.25;2.85;;;;;;;20.22;79.82;100526.91;712251;1205;114409;-74
2021/05/28 12:40:53;;;;;;;10.00;4.90;;;;;;;18.96;75.55;100543.14;712356;1205;114362;-74
2021/05/28 12:56:25;;;;;;;4.57;2.60;;;;;;;21.09;71.51;100539.98;712573;1202;115654;-74
2021/05/28 13:11:48;;;;;;;5.68;2.78;;;;;;;21.72;63.79;100542.47;712182;1203;113937;-74
2021/05/28 13:27:21;;;;;;;4.47;1.97;;;;;;;21.48;64.71;100550.99;712125;1206;114299;-75
2021/05/28 13:42:46;;;;;;;5.75;3.45;;;;;;;20.08;62.64;100551.78;712343;1205;115595;-74
2021/05/28 13:58:08;;;;;;;2.53;2.20;;;;;;;19.35;65.57;100573.11;712186;1203;114642;-74
2021/05/28 14:13:31;;;;;;;2.43;1.88;;;;;;;18.23;69.58;100574.73;712232;1206;114608;-75
2021/05/28 14:28:52;;;;;;;6.03;4.00;;;;;;;18.00;71.36;100588.84;712306;1203;114405;-74
2021/05/28 14:44:13;;;;;;;5.10;3.20;;;;;;;17.42;73.97;100582.98;712674;1202;114619;-74
2021/05/28 14:59:33;;;;;;;3.95;3.10;;;;;;;17.48;76.00;100587.60;712465;1202;113809;-75
2021/05/28 15:14:54;;;;;;;4.70;3.70;;;;;;;16.89;77.94;100588.79;712307;1205;113615;-75
2021/05/28 15:30:15;;;;;;;5.77;4.40;;;;;;;16.10;79.76;100599.92;712437;1202;114530;-75
2021/05/28 15:45:37;;;;;;;7.60;4.55;;;;;;;16.62;81.64;100587.34;712605;1205;114712;-75
2021/05/28 16:00:58;;;;;;;16.10;6.40;;;;;;;16.89;83.45;100595.89;712514;1206;114812;-75
2021/05/28 16:16:19;;;;;;;14.75;8.90;;;;;;;16.63;86.06;100605.70;712530;1205;114717;-76
2021/05/28 16:31:39;;;;;;;16.80;8.50;;;;;;;16.10;88.41;100618.44;712389;1179;114241;-75
2021/05/28 16:47:00;;;;;;;14.18;7.55;;;;;;;15.61;88.16;100626.20;712382;1179;115220;-75
2021/05/28 17:02:21;;;;;;;35.43;18.63;;;;;;;15.43;89.51;100629.78;712299;1202;115072;-76
2021/05/28 17:17:41;;;;;;;19.68;14.63;;;;;;;15.22;92.04;100634.65;712416;1202;114924;-75
2021/05/28 17:33:03;;;;;;;35.23;29.75;;;;;;;14.99;94.54;100640.44;713233;1202;115488;-76
2021/05/28 17:48:24;;;;;;;27.40;17.70;;;;;;;14.69;97.34;100629.36;712408;1188;114927;-74
2021/05/28 18:03:45;;;;;;;20.25;14.08;;;;;;;14.77;100.00;100633.88;712390;1206;116202;-74
2021/05/28 18:19:05;;;;;;;23.83;13.63;;;;;;;14.54;100.00;100625.57;712719;1202;115120;-74
2021/05/28 18:34:26;;;;;;;15.40;9.80;;;;;;;14.36;100.00;100641.41;712476;1203;115176;-75
2021/05/28 18:49:47;;;;;;;14.90;8.37;;;;;;;14.15;100.00;100646.01;712534;1180;114291;-75
2021/05/28 19:05:09;;;;;;;17.63;9.58;;;;;;;14.03;100.00;100656.92;712395;1203;114729;-74
2021/05/28 19:20:30;;;;;;;40.87;21.73;;;;;;;13.90;100.00;100665.21;712334;1203;115117;-74
2021/05/28 19:35:50;;;;;;;29.23;16.07;;;;;;;13.76;100.00;100680.52;712389;1202;116235;-74
2021/05/28 19:51:12;;;;;;;47.13;20.40;;;;;;;13.55;100.00;100674.66;712819;1180;114939;-73
2021/05/28 20:06:38;;;;;;;24.05;14.85;;;;;;;13.34;100.00;100678.30;712465;1202;114742;-73
2021/05/28 20:21:58;;;;;;;21.63;11.97;;;;;;;13.10;100.00;100676.16;712796;1206;114395;-73
2021/05/28 20:37:18;;;;;;;77.50;34.37;;;;;;;12.95;100.00;100673.97;712617;1180;114597;-74
2021/05/28 20:52:40;;;;;;;82.40;34.45;;;;;;;12.69;100.00;100676.35;712623;1178;114848;-75
2021/05/28 21:08:01;;;;;;;78.60;36.30;;;;;;;12.48;100.00;100693.13;712686;1200;115126;-75
2021/05/28 21:23:22;;;;;;;46.60;24.68;;;;;;;12.06;100.00;100714.38;712421;1202;116241;-75
2021/05/28 21:38:43;;;;;;;24.60;13.20;;;;;;;11.68;100.00;100729.02;712264;1180;114741;-74
2021/05/28 21:54:04;;;;;;;26.20;13.15;;;;;;;11.52;100.00;100731.28;712388;1177;114499;-74
2021/05/28 22:09:24;;;;;;;19.90;10.70;;;;;;;11.20;100.00;100717.27;712663;1202;116059;-74
2021/05/28 22:24:45;;;;;;;40.05;16.98;;;;;;;11.11;100.00;100729.39;712563;1180;114933;-76
2021/05/28 22:40:07;;;;;;;20.90;11.70;;;;;;;10.89;100.00;100734.77;712326;1202;114612;-74
2021/05/28 22:55:28;;;;;;;23.73;12.25;;;;;;;10.77;100.00;100736.60;712214;1203;115472;-75
2021/05/28 23:10:57;;;;;;;21.80;10.90;;;;;;;10.56;100.00;100749.67;712606;1177;115378;-73
2021/05/28 23:26:20;;;;;;;11.53;6.70;;;;;;;10.52;100.00;100754.33;712350;1178;114884;-74
2021/05/28 23:41:41;;;;;;;9.88;6.38;;;;;;;10.50;100.00;100748.36;712292;1202;114790;-75
2021/05/28 23:57:02;;;;;;;15.18;6.45;;;;;;;10.80;100.00;100757.33;712444;1206;114954;-74
